sensor_id;sensor_type;location;lat;lon;timestamp;pressure;altitude;pressure_sealevel;temperature;humidity
76126;BME280;65174;48.138;21.002;2023-02-27T00:02:59;99314.19;;;0.13;58.83
76126;BME280;65174;48.138;21.002;2023-02-27T00:06:01;99325.28;;;0.09;59.01
76126;BME280;65174;48.138;21.002;2023-02-27T00:09:03;99320.59;;;-0.08;59.83
76126;BME280;65174;48.138;21.002;2023-02-27T00:12:05;99334.75;;;0.01;59.35
76126;BME280;65174;48.138;21.002;2023-02-27T00:15:13;99315.38;;;-0.02;59.28
76126;BME280;65174;48.138;21.002;2023-02-27T00:18:15;99327.09;;;0.04;59.26
76126;BME280;65174;48.138;21.002;2023-02-27T00:21:17;99334.03;;;-0.04;58.74
76126;BME280;65174;48.138;21.002;2023-02-27T00:24:20;99331.06;;;-0.23;60.09
76126;BME280;65174;48.138;21.002;2023-02-27T00:27:23;99320.84;;;-0.18;59.63
76126;BME280;65174;48.138;21.002;2023-02-27T00:30:26;99323.38;;;-0.18;59.44
76126;BME280;65174;48.138;21.002;2023-02-27T00:33:28;99323.31;;;-0.15;59.47
76126;BME280;65174;48.138;21.002;2023-02-27T00:36:30;99313.47;;;-0.29;59.14
76126;BME280;65174;48.138;21.002;2023-02-27T00:39:32;99321.88;;;-0.25;58.75
76126;BME280;65174;48.138;21.002;2023-02-27T00:42:34;99331.06;;;-0.23;59.51
76126;BME280;65174;48.138;21.002;2023-02-27T00:45:36;99306.53;;;-0.19;58.55
76126;BME280;65174;48.138;21.002;2023-02-27T00:48:38;99333.47;;;-0.17;58.39
76126;BME280;65174;48.138;21.002;2023-02-27T00:51:42;99334.88;;;-0.40;59.46
76126;BME280;65174;48.138;21.002;2023-02-27T00:54:44;99333.69;;;-0.26;58.81
76126;BME280;65174;48.138;21.002;2023-02-27T00:57:46;99337.03;;;-0.24;57.97
76126;BME280;65174;48.138;21.002;2023-02-27T01:00:49;99339.47;;;-0.21;57.56
76126;BME280;65174;48.138;21.002;2023-02-27T01:03:51;99342.75;;;-0.16;57.04
76126;BME280;65174;48.138;21.002;2023-02-27T01:06:53;99333.72;;;-0.27;57.67
76126;BME280;65174;48.138;21.002;2023-02-27T01:09:55;99343.28;;;-0.38;57.92
76126;BME280;65174;48.138;21.002;2023-02-27T01:12:57;99318.44;;;-0.24;56.92
76126;BME280;65174;48.138;21.002;2023-02-27T01:16:00;99330.63;;;-0.40;57.73
76126;BME280;65174;48.138;21.002;2023-02-27T01:19:03;99332.38;;;-0.43;57.07
76126;BME280;65174;48.138;21.002;2023-02-27T01:22:05;99337.19;;;-0.30;56.55
76126;BME280;65174;48.138;21.002;2023-02-27T01:25:08;99334.47;;;-0.22;55.88
76126;BME280;65174;48.138;21.002;2023-02-27T01:28:13;99340.38;;;-0.22;55.35
76126;BME280;65174;48.138;21.002;2023-02-27T01:31:17;99340.19;;;-0.14;55.81
76126;BME280;65174;48.138;21.002;2023-02-27T01:34:20;99330.03;;;-0.14;55.38
76126;BME280;65174;48.138;21.002;2023-02-27T01:37:22;99343.03;;;-0.28;55.74
76126;BME280;65174;48.138;21.002;2023-02-27T01:40:24;99334.66;;;-0.31;56.00
76126;BME280;65174;48.138;21.002;2023-02-27T01:43:26;99355.56;;;-0.22;56.36
76126;BME280;65174;48.138;21.002;2023-02-27T01:46:29;99353.13;;;-0.26;55.89
76126;BME280;65174;48.138;21.002;2023-02-27T01:49:33;99372.41;;;-0.19;55.73
76126;BME280;65174;48.138;21.002;2023-02-27T01:52:36;99350.66;;;-0.29;56.46
76126;BME280;65174;48.138;21.002;2023-02-27T01:55:40;99372.75;;;-0.34;56.31
76126;BME280;65174;48.138;21.002;2023-02-27T01:58:44;99363.31;;;-0.29;56.51
76126;BME280;65174;48.138;21.002;2023-02-27T02:01:49;99373.59;;;-0.35;56.12
76126;BME280;65174;48.138;21.002;2023-02-27T02:04:52;99367.50;;;-0.25;56.07
76126;BME280;65174;48.138;21.002;2023-02-27T02:07:56;99374.31;;;-0.29;55.83
76126;BME280;65174;48.138;21.002;2023-02-27T02:11:00;99384.34;;;-0.24;55.93
76126;BME280;65174;48.138;21.002;2023-02-27T02:14:03;99383.56;;;-0.26;55.83
76126;BME280;65174;48.138;21.002;2023-02-27T02:17:39;99396.16;;;-0.23;55.69
76126;BME280;65174;48.138;21.002;2023-02-27T02:21:11;99409.69;;;-0.24;55.78
76126;BME280;65174;48.138;21.002;2023-02-27T02:25:15;99386.97;;;-0.29;56.09
76126;BME280;65174;48.138;21.002;2023-02-27T02:32:20;99411.53;;;-0.31;56.09
76126;BME280;65174;48.138;21.002;2023-02-27T02:42:26;99427.63;;;-0.33;57.71
76126;BME280;65174;48.138;21.002;2023-02-27T02:45:42;99404.69;;;-0.27;57.26
76126;BME280;65174;48.138;21.002;2023-02-27T02:59:40;99435.97;;;-0.28;56.38
76126;BME280;65174;48.138;21.002;2023-02-27T03:02:59;99431.75;;;-0.29;56.44
76126;BME280;65174;48.138;21.002;2023-02-27T03:06:16;99435.44;;;-0.44;56.33
76126;BME280;65174;48.138;21.002;2023-02-27T03:09:34;99419.09;;;-0.29;55.99
76126;BME280;65174;48.138;21.002;2023-02-27T03:12:41;99441.22;;;-0.36;55.71
76126;BME280;65174;48.138;21.002;2023-02-27T03:15:55;99443.44;;;-0.22;54.24
76126;BME280;65174;48.138;21.002;2023-02-27T03:22:39;99443.75;;;-0.37;54.55
76126;BME280;65174;48.138;21.002;2023-02-27T03:25:43;99435.94;;;-0.27;54.67
76126;BME280;65174;48.138;21.002;2023-02-27T03:28:53;99440.25;;;-0.30;54.79
76126;BME280;65174;48.138;21.002;2023-02-27T03:32:00;99456.34;;;-0.33;54.54
76126;BME280;65174;48.138;21.002;2023-02-27T03:35:05;99481.56;;;-0.27;54.69
76126;BME280;65174;48.138;21.002;2023-02-27T03:38:23;99459.59;;;-0.26;54.69
76126;BME280;65174;48.138;21.002;2023-02-27T03:41:34;99455.28;;;-0.23;55.17
76126;BME280;65174;48.138;21.002;2023-02-27T03:48:01;99456.28;;;-0.30;55.33
76126;BME280;65174;48.138;21.002;2023-02-27T03:51:04;99454.81;;;-0.41;56.00
76126;BME280;65174;48.138;21.002;2023-02-27T03:54:15;99448.72;;;-0.33;56.78
76126;BME280;65174;48.138;21.002;2023-02-27T03:57:17;99453.84;;;-0.34;56.64
76126;BME280;65174;48.138;21.002;2023-02-27T04:00:21;99457.19;;;-0.32;56.17
76126;BME280;65174;48.138;21.002;2023-02-27T04:03:24;99453.75;;;-0.30;55.92
76126;BME280;65174;48.138;21.002;2023-02-27T04:06:28;99453.72;;;-0.28;56.44
76126;BME280;65174;48.138;21.002;2023-02-27T04:16:49;99465.50;;;-0.27;56.18
76126;BME280;65174;48.138;21.002;2023-02-27T04:26:32;99455.38;;;-0.27;56.10
76126;BME280;65174;48.138;21.002;2023-02-27T04:30:14;99468.25;;;-0.36;55.65
76126;BME280;65174;48.138;21.002;2023-02-27T04:36:43;99459.09;;;-0.43;55.53
76126;BME280;65174;48.138;21.002;2023-02-27T04:39:52;99462.38;;;-0.40;55.85
76126;BME280;65174;48.138;21.002;2023-02-27T04:42:57;99472.56;;;-0.41;56.23
76126;BME280;65174;48.138;21.002;2023-02-27T04:46:02;99469.91;;;-0.35;55.59
76126;BME280;65174;48.138;21.002;2023-02-27T04:49:26;99487.72;;;-0.40;55.76
76126;BME280;65174;48.138;21.002;2023-02-27T04:52:34;99490.09;;;-0.31;55.39
76126;BME280;65174;48.138;21.002;2023-02-27T04:55:43;99491.06;;;-0.36;55.67
76126;BME280;65174;48.138;21.002;2023-02-27T04:58:58;99491.09;;;-0.38;55.89
76126;BME280;65174;48.138;21.002;2023-02-27T05:02:05;99489.25;;;-0.31;55.00
76126;BME280;65174;48.138;21.002;2023-02-27T05:05:15;99517.31;;;-0.42;55.43
76126;BME280;65174;48.138;21.002;2023-02-27T05:08:35;99508.97;;;-0.45;54.59
76126;BME280;65174;48.138;21.002;2023-02-27T05:11:54;99496.38;;;-0.50;53.92
76126;BME280;65174;48.138;21.002;2023-02-27T05:15:05;99508.72;;;-0.33;52.98
76126;BME280;65174;48.138;21.002;2023-02-27T05:18:11;99502.75;;;-0.31;52.92
76126;BME280;65174;48.138;21.002;2023-02-27T05:21:31;99543.50;;;-0.41;52.48
76126;BME280;65174;48.138;21.002;2023-02-27T05:39:52;99562.84;;;-0.36;52.84
76126;BME280;65174;48.138;21.002;2023-02-27T05:43:03;99561.25;;;-0.41;52.94
76126;BME280;65174;48.138;21.002;2023-02-27T05:46:12;99563.13;;;-0.51;52.38
76126;BME280;65174;48.138;21.002;2023-02-27T05:52:26;99558.47;;;-0.29;52.12
76126;BME280;65174;48.138;21.002;2023-02-27T05:55:37;99556.00;;;-0.31;52.21
76126;BME280;65174;48.138;21.002;2023-02-27T05:58:43;99604.91;;;-0.27;51.95
76126;BME280;65174;48.138;21.002;2023-02-27T06:01:46;99584.69;;;-0.29;52.59
76126;BME280;65174;48.138;21.002;2023-02-27T06:04:48;99592.13;;;-0.20;51.68
76126;BME280;65174;48.138;21.002;2023-02-27T06:07:50;99600.56;;;-0.21;52.39
76126;BME280;65174;48.138;21.002;2023-02-27T06:43:04;99623.81;;;0.03;53.06
76126;BME280;65174;48.138;21.002;2023-02-27T06:46:06;99604.19;;;0.12;53.33
76126;BME280;65174;48.138;21.002;2023-02-27T06:49:08;99638.63;;;0.24;52.56
76126;BME280;65174;48.138;21.002;2023-02-27T06:52:10;99616.91;;;0.09;52.25
76126;BME280;65174;48.138;21.002;2023-02-27T06:55:12;99610.72;;;0.24;52.19
76126;BME280;65174;48.138;21.002;2023-02-27T06:58:20;99624.88;;;0.35;51.41
76126;BME280;65174;48.138;21.002;2023-02-27T07:01:22;99628.19;;;0.39;51.55
76126;BME280;65174;48.138;21.002;2023-02-27T07:04:27;99644.13;;;0.45;51.91
76126;BME280;65174;48.138;21.002;2023-02-27T07:07:29;99636.38;;;0.51;51.00
76126;BME280;65174;48.138;21.002;2023-02-27T07:10:37;99656.00;;;0.43;51.50
76126;BME280;65174;48.138;21.002;2023-02-27T07:13:40;99644.97;;;0.44;50.79
76126;BME280;65174;48.138;21.002;2023-02-27T07:16:42;99653.03;;;0.64;50.86
76126;BME280;65174;48.138;21.002;2023-02-27T07:19:44;99656.41;;;0.65;50.50
76126;BME280;65174;48.138;21.002;2023-02-27T07:22:46;99668.19;;;0.69;50.97
76126;BME280;65174;48.138;21.002;2023-02-27T07:25:48;99672.31;;;0.73;50.13
76126;BME280;65174;48.138;21.002;2023-02-27T07:28:50;99650.84;;;0.88;50.30
76126;BME280;65174;48.138;21.002;2023-02-27T07:31:52;99685.59;;;0.84;50.39
76126;BME280;65174;48.138;21.002;2023-02-27T07:34:54;99690.72;;;0.82;50.56
76126;BME280;65174;48.138;21.002;2023-02-27T07:37:56;99643.94;;;0.54;50.38
76126;BME280;65174;48.138;21.002;2023-02-27T07:40:58;99736.00;;;0.62;50.48
76126;BME280;65174;48.138;21.002;2023-02-27T07:44:00;99689.22;;;0.74;50.81
76126;BME280;65174;48.138;21.002;2023-02-27T07:47:02;99681.13;;;0.55;51.22
76126;BME280;65174;48.138;21.002;2023-02-27T07:50:05;99699.53;;;0.66;51.33
76126;BME280;65174;48.138;21.002;2023-02-27T07:53:07;99704.81;;;0.56;50.66
76126;BME280;65174;48.138;21.002;2023-02-27T07:56:09;99697.88;;;0.64;51.51
76126;BME280;65174;48.138;21.002;2023-02-27T07:59:11;99690.91;;;0.75;51.36
76126;BME280;65174;48.138;21.002;2023-02-27T08:02:16;99691.34;;;0.94;51.40
76126;BME280;65174;48.138;21.002;2023-02-27T08:05:18;99689.53;;;0.99;51.48
76126;BME280;65174;48.138;21.002;2023-02-27T08:08:20;99706.13;;;0.75;51.00
76126;BME280;65174;48.138;21.002;2023-02-27T08:11:22;99722.41;;;1.06;50.48
76126;BME280;65174;48.138;21.002;2023-02-27T08:14:24;99707.50;;;0.90;50.27
76126;BME280;65174;48.138;21.002;2023-02-27T08:17:26;99716.34;;;0.72;51.03
76126;BME280;65174;48.138;21.002;2023-02-27T08:20:28;99735.47;;;0.88;50.02
76126;BME280;65174;48.138;21.002;2023-02-27T08:23:31;99741.75;;;1.12;50.42
76126;BME280;65174;48.138;21.002;2023-02-27T08:26:33;99721.38;;;1.15;50.83
76126;BME280;65174;48.138;21.002;2023-02-27T08:29:35;99734.59;;;1.29;51.24
76126;BME280;65174;48.138;21.002;2023-02-27T08:32:37;99735.13;;;1.05;50.46
76126;BME280;65174;48.138;21.002;2023-02-27T08:35:40;99738.72;;;0.95;49.71
76126;BME280;65174;48.138;21.002;2023-02-27T08:38:42;99740.22;;;1.05;49.69
76126;BME280;65174;48.138;21.002;2023-02-27T08:41:44;99745.31;;;1.05;49.19
76126;BME280;65174;48.138;21.002;2023-02-27T08:44:46;99740.44;;;0.93;49.30
76126;BME280;65174;48.138;21.002;2023-02-27T08:47:48;99748.16;;;0.88;49.26
76126;BME280;65174;48.138;21.002;2023-02-27T08:50:50;99766.25;;;1.14;49.75
76126;BME280;65174;48.138;21.002;2023-02-27T08:53:52;99783.75;;;0.87;49.72
76126;BME280;65174;48.138;21.002;2023-02-27T08:56:56;99727.25;;;1.15;49.58
76126;BME280;65174;48.138;21.002;2023-02-27T08:59:58;99772.97;;;1.17;48.89
76126;BME280;65174;48.138;21.002;2023-02-27T09:03:00;99776.06;;;1.31;49.48
76126;BME280;65174;48.138;21.002;2023-02-27T09:06:03;99773.53;;;1.31;49.24
76126;BME280;65174;48.138;21.002;2023-02-27T09:09:06;99785.66;;;1.56;48.84
76126;BME280;65174;48.138;21.002;2023-02-27T09:12:08;99789.09;;;1.54;49.05
76126;BME280;65174;48.138;21.002;2023-02-27T09:15:10;99786.69;;;1.85;47.33
76126;BME280;65174;48.138;21.002;2023-02-27T09:18:12;99801.34;;;1.37;49.13
76126;BME280;65174;48.138;21.002;2023-02-27T09:21:16;99819.09;;;1.40;48.11
76126;BME280;65174;48.138;21.002;2023-02-27T09:24:18;99820.19;;;1.67;47.75
76126;BME280;65174;48.138;21.002;2023-02-27T09:27:21;99812.13;;;1.48;48.15
76126;BME280;65174;48.138;21.002;2023-02-27T09:30:24;99807.63;;;1.60;48.84
76126;BME280;65174;48.138;21.002;2023-02-27T09:33:27;99816.84;;;1.25;49.46
76126;BME280;65174;48.138;21.002;2023-02-27T09:36:30;99820.31;;;1.60;49.41
76126;BME280;65174;48.138;21.002;2023-02-27T09:39:32;99807.75;;;1.54;49.33
76126;BME280;65174;48.138;21.002;2023-02-27T09:42:40;99825.50;;;1.56;49.19
76126;BME280;65174;48.138;21.002;2023-02-27T09:45:50;99817.53;;;1.71;49.99
76126;BME280;65174;48.138;21.002;2023-02-27T09:48:57;99817.25;;;1.83;47.87
76126;BME280;65174;48.138;21.002;2023-02-27T09:52:00;99847.31;;;1.66;48.34
76126;BME280;65174;48.138;21.002;2023-02-27T09:55:12;99829.28;;;1.77;48.98
76126;BME280;65174;48.138;21.002;2023-02-27T10:05:25;99848.78;;;1.78;49.23
76126;BME280;65174;48.138;21.002;2023-02-27T10:08:45;99844.09;;;1.96;48.79
76126;BME280;65174;48.138;21.002;2023-02-27T10:18:30;99888.94;;;2.00;48.84
76126;BME280;65174;48.138;21.002;2023-02-27T10:21:39;99871.38;;;2.26;48.12
76126;BME280;65174;48.138;21.002;2023-02-27T10:24:53;99869.81;;;2.21;47.91
76126;BME280;65174;48.138;21.002;2023-02-27T10:28:08;99859.63;;;2.21;48.70
76126;BME280;65174;48.138;21.002;2023-02-27T10:31:17;99891.13;;;2.17;48.62
76126;BME280;65174;48.138;21.002;2023-02-27T10:34:24;99867.50;;;1.74;49.22
76126;BME280;65174;48.138;21.002;2023-02-27T10:37:27;99864.84;;;1.78;48.97
76126;BME280;65174;48.138;21.002;2023-02-27T10:40:34;99916.59;;;1.77;48.90
76126;BME280;65174;48.138;21.002;2023-02-27T10:43:37;99879.91;;;1.87;49.02
76126;BME280;65174;48.138;21.002;2023-02-27T10:46:39;99865.88;;;2.08;48.87
76126;BME280;65174;48.138;21.002;2023-02-27T10:49:42;99879.75;;;1.95;48.21
76126;BME280;65174;48.138;21.002;2023-02-27T10:52:54;99877.97;;;1.98;49.08
76126;BME280;65174;48.138;21.002;2023-02-27T10:55:59;99904.44;;;1.90;48.21
76126;BME280;65174;48.138;21.002;2023-02-27T10:59:10;99887.38;;;1.56;49.77
76126;BME280;65174;48.138;21.002;2023-02-27T11:02:21;99889.06;;;1.56;48.61
76126;BME280;65174;48.138;21.002;2023-02-27T11:05:27;99884.34;;;1.79;48.14
76126;BME280;65174;48.138;21.002;2023-02-27T11:08:31;99891.16;;;2.14;48.64
76126;BME280;65174;48.138;21.002;2023-02-27T11:11:33;99910.56;;;2.19;48.18
76126;BME280;65174;48.138;21.002;2023-02-27T11:14:48;99899.66;;;2.14;48.69
76126;BME280;65174;48.138;21.002;2023-02-27T11:17:50;99897.09;;;2.14;47.74
76126;BME280;65174;48.138;21.002;2023-02-27T11:24:20;99888.72;;;2.11;48.87
76126;BME280;65174;48.138;21.002;2023-02-27T11:27:28;99896.81;;;2.26;46.83
76126;BME280;65174;48.138;21.002;2023-02-27T11:30:30;99885.03;;;2.24;48.08
76126;BME280;65174;48.138;21.002;2023-02-27T11:34:51;99910.72;;;2.49;46.89
76126;BME280;65174;48.138;21.002;2023-02-27T11:52:16;99907.84;;;1.89;48.23
76126;BME280;65174;48.138;21.002;2023-02-27T11:57:28;99910.13;;;2.02;47.77
76126;BME280;65174;48.138;21.002;2023-02-27T12:02:51;99905.06;;;1.99;48.11
76126;BME280;65174;48.138;21.002;2023-02-27T12:08:13;99907.13;;;2.20;47.74
76126;BME280;65174;48.138;21.002;2023-02-27T12:12:55;99896.34;;;2.11;47.39
76126;BME280;65174;48.138;21.002;2023-02-27T12:17:11;99910.31;;;1.93;48.06
76126;BME280;65174;48.138;21.002;2023-02-27T12:22:21;99907.44;;;2.08;48.04
76126;BME280;65174;48.138;21.002;2023-02-27T12:27:44;99906.75;;;2.00;48.20
76126;BME280;65174;48.138;21.002;2023-02-27T12:37:28;99904.59;;;2.20;48.11
76126;BME280;65174;48.138;21.002;2023-02-27T13:00:39;99929.28;;;1.79;48.78
76126;BME280;65174;48.138;21.002;2023-02-27T13:06:06;99919.34;;;2.06;48.18
76126;BME280;65174;48.138;21.002;2023-02-27T13:11:19;99941.94;;;1.82;48.59
76126;BME280;65174;48.138;21.002;2023-02-27T13:16:32;99933.94;;;1.98;48.98
76126;BME280;65174;48.138;21.002;2023-02-27T13:21:41;99939.19;;;2.29;48.40
76126;BME280;65174;48.138;21.002;2023-02-27T13:25:18;99945.81;;;1.98;48.58
76126;BME280;65174;48.138;21.002;2023-02-27T13:28:25;99952.56;;;2.00;48.55
76126;BME280;65174;48.138;21.002;2023-02-27T13:32:03;99962.66;;;2.03;48.63
76126;BME280;65174;48.138;21.002;2023-02-27T13:36:26;99953.00;;;1.79;48.46
76126;BME280;65174;48.138;21.002;2023-02-27T13:45:46;99971.56;;;2.22;48.43
76126;BME280;65174;48.138;21.002;2023-02-27T13:48:50;99966.09;;;2.02;47.69
76126;BME280;65174;48.138;21.002;2023-02-27T13:51:54;99968.75;;;1.96;47.78
76126;BME280;65174;48.138;21.002;2023-02-27T13:55:00;99973.25;;;1.84;49.29
76126;BME280;65174;48.138;21.002;2023-02-27T13:58:16;99976.31;;;1.99;48.67
76126;BME280;65174;48.138;21.002;2023-02-27T14:01:25;99970.50;;;1.93;48.72
76126;BME280;65174;48.138;21.002;2023-02-27T14:04:35;99984.66;;;2.07;48.04
76126;BME280;65174;48.138;21.002;2023-02-27T14:07:58;99981.09;;;1.73;48.94
76126;BME280;65174;48.138;21.002;2023-02-27T14:11:14;99982.78;;;2.14;49.51
76126;BME280;65174;48.138;21.002;2023-02-27T14:14:44;99981.56;;;1.92;49.50
76126;BME280;65174;48.138;21.002;2023-02-27T14:17:49;99994.16;;;1.98;48.93
76126;BME280;65174;48.138;21.002;2023-02-27T14:21:00;99995.84;;;1.99;48.92
76126;BME280;65174;48.138;21.002;2023-02-27T14:24:02;100006.06;;;1.96;48.77
76126;BME280;65174;48.138;21.002;2023-02-27T14:27:21;100002.81;;;1.89;48.17
76126;BME280;65174;48.138;21.002;2023-02-27T14:30:42;100017.66;;;2.10;49.36
76126;BME280;65174;48.138;21.002;2023-02-27T14:33:47;100022.41;;;1.86;48.81
76126;BME280;65174;48.138;21.002;2023-02-27T14:36:53;100020.72;;;1.85;49.19
76126;BME280;65174;48.138;21.002;2023-02-27T14:39:57;100026.81;;;1.76;49.38
76126;BME280;65174;48.138;21.002;2023-02-27T14:49:28;100024.72;;;1.96;49.39
76126;BME280;65174;48.138;21.002;2023-02-27T14:52:38;100033.31;;;1.92;48.62
76126;BME280;65174;48.138;21.002;2023-02-27T14:55:51;100037.78;;;1.78;48.80
76126;BME280;65174;48.138;21.002;2023-02-27T14:58:54;100043.53;;;1.89;49.83
76126;BME280;65174;48.138;21.002;2023-02-27T15:02:16;100041.38;;;1.70;50.31
76126;BME280;65174;48.138;21.002;2023-02-27T15:05:24;100045.84;;;1.57;49.66
76126;BME280;65174;48.138;21.002;2023-02-27T15:08:32;100050.25;;;1.47;49.04
76126;BME280;65174;48.138;21.002;2023-02-27T15:11:39;100056.72;;;1.65;49.47
76126;BME280;65174;48.138;21.002;2023-02-27T15:14:48;100064.34;;;1.65;49.20
76126;BME280;65174;48.138;21.002;2023-02-27T15:24:35;100090.22;;;1.39;49.92
76126;BME280;65174;48.138;21.002;2023-02-27T15:29:40;100091.81;;;1.45;51.00
76126;BME280;65174;48.138;21.002;2023-02-27T15:33:43;100098.84;;;1.28;50.39
76126;BME280;65174;48.138;21.002;2023-02-27T15:43:56;100109.88;;;1.28;50.09
76126;BME280;65174;48.138;21.002;2023-02-27T15:56:40;100130.00;;;0.86;52.00
76126;BME280;65174;48.138;21.002;2023-02-27T15:59:43;100125.94;;;0.74;51.97
76126;BME280;65174;48.138;21.002;2023-02-27T16:02:51;100130.84;;;0.88;52.17
76126;BME280;65174;48.138;21.002;2023-02-27T16:05:55;100139.28;;;0.87;52.69
76126;BME280;65174;48.138;21.002;2023-02-27T16:09:26;100140.25;;;0.78;52.68
76126;BME280;65174;48.138;21.002;2023-02-27T16:12:36;100147.06;;;0.77;52.60
76126;BME280;65174;48.138;21.002;2023-02-27T16:15:38;100148.84;;;0.68;52.58
76126;BME280;65174;48.138;21.002;2023-02-27T16:18:46;100149.88;;;0.56;52.86
76126;BME280;65174;48.138;21.002;2023-02-27T16:25:10;100160.91;;;0.54;53.44
76126;BME280;65174;48.138;21.002;2023-02-27T16:28:19;100156.88;;;0.36;53.01
76126;BME280;65174;48.138;21.002;2023-02-27T16:31:25;100163.41;;;0.55;53.52
76126;BME280;65174;48.138;21.002;2023-02-27T16:34:36;100173.72;;;0.40;53.67
76126;BME280;65174;48.138;21.002;2023-02-27T16:37:47;100178.81;;;0.42;52.98
76126;BME280;65174;48.138;21.002;2023-02-27T16:40:51;100173.78;;;0.36;53.21
76126;BME280;65174;48.138;21.002;2023-02-27T16:43:54;100172.97;;;0.35;53.11
76126;BME280;65174;48.138;21.002;2023-02-27T16:46:57;100179.00;;;0.24;53.88
76126;BME280;65174;48.138;21.002;2023-02-27T16:49:59;100176.19;;;0.46;53.38
76126;BME280;65174;48.138;21.002;2023-02-27T16:53:01;100183.94;;;0.36;53.81
76126;BME280;65174;48.138;21.002;2023-02-27T16:56:03;100184.78;;;0.36;53.75
76126;BME280;65174;48.138;21.002;2023-02-27T16:59:06;100187.47;;;0.24;54.14
76126;BME280;65174;48.138;21.002;2023-02-27T17:02:13;100199.16;;;0.36;53.70
76126;BME280;65174;48.138;21.002;2023-02-27T17:05:16;100183.94;;;0.37;53.61
76126;BME280;65174;48.138;21.002;2023-02-27T17:08:18;100189.97;;;0.27;54.34
76126;BME280;65174;48.138;21.002;2023-02-27T17:11:23;100192.69;;;0.08;54.55
76126;BME280;65174;48.138;21.002;2023-02-27T17:14:24;100198.63;;;0.05;54.97
76126;BME280;65174;48.138;21.002;2023-02-27T17:17:27;100201.03;;;0.20;54.23
76126;BME280;65174;48.138;21.002;2023-02-27T17:20:29;100197.69;;;0.15;54.57
76126;BME280;65174;48.138;21.002;2023-02-27T17:23:31;100212.13;;;0.12;54.46
76126;BME280;65174;48.138;21.002;2023-02-27T17:26:34;100198.69;;;0.02;55.26
76126;BME280;65174;48.138;21.002;2023-02-27T17:29:37;100192.75;;;0.03;55.00
76126;BME280;65174;48.138;21.002;2023-02-27T17:32:39;100199.41;;;0.15;54.41
76126;BME280;65174;48.138;21.002;2023-02-27T17:35:41;100198.56;;;0.13;54.29
76126;BME280;65174;48.138;21.002;2023-02-27T17:38:43;100192.72;;;0.06;54.75
76126;BME280;65174;48.138;21.002;2023-02-27T17:41:46;100195.25;;;0.06;54.58
76126;BME280;65174;48.138;21.002;2023-02-27T17:44:48;100201.16;;;0.07;54.80
76126;BME280;65174;48.138;21.002;2023-02-27T17:47:50;100195.38;;;-0.05;55.02
76126;BME280;65174;48.138;21.002;2023-02-27T17:50:52;100198.69;;;-0.01;55.12
76126;BME280;65174;48.138;21.002;2023-02-27T17:53:54;100224.09;;;-0.03;55.20
76126;BME280;65174;48.138;21.002;2023-02-27T17:56:56;100220.66;;;0.02;54.80
76126;BME280;65174;48.138;21.002;2023-02-27T17:59:58;100217.34;;;-0.08;55.18
76126;BME280;65174;48.138;21.002;2023-02-27T18:03:01;100230.09;;;-0.14;55.19
76126;BME280;65174;48.138;21.002;2023-02-27T18:06:04;100230.94;;;-0.11;55.07
76126;BME280;65174;48.138;21.002;2023-02-27T18:09:07;100234.44;;;-0.28;55.91
76126;BME280;65174;48.138;21.002;2023-02-27T18:12:10;100241.19;;;-0.26;55.99
76126;BME280;65174;48.138;21.002;2023-02-27T18:15:12;100240.28;;;-0.17;54.89
76126;BME280;65174;48.138;21.002;2023-02-27T18:18:15;100241.16;;;-0.24;55.32
76126;BME280;65174;48.138;21.002;2023-02-27T18:21:19;100247.94;;;-0.26;55.28
76126;BME280;65174;48.138;21.002;2023-02-27T18:24:22;100241.28;;;-0.39;55.33
76126;BME280;65174;48.138;21.002;2023-02-27T18:27:25;100256.38;;;-0.24;55.71
76126;BME280;65174;48.138;21.002;2023-02-27T18:30:30;100267.28;;;-0.13;55.10
76126;BME280;65174;48.138;21.002;2023-02-27T18:33:34;100259.69;;;-0.13;54.62
76126;BME280;65174;48.138;21.002;2023-02-27T18:36:37;100263.16;;;-0.26;54.97
76126;BME280;65174;48.138;21.002;2023-02-27T18:39:39;100268.19;;;-0.22;54.84
76126;BME280;65174;48.138;21.002;2023-02-27T18:43:46;100278.31;;;-0.17;54.91
76126;BME280;65174;48.138;21.002;2023-02-27T18:52:25;100272.41;;;-0.21;55.53
76126;BME280;65174;48.138;21.002;2023-02-27T19:01:37;100287.69;;;-0.28;55.53
76126;BME280;65174;48.138;21.002;2023-02-27T19:04:59;100292.78;;;-0.33;55.73
76126;BME280;65174;48.138;21.002;2023-02-27T19:09:04;100292.75;;;-0.30;56.10
76126;BME280;65174;48.138;21.002;2023-02-27T19:12:51;100287.69;;;-0.28;55.88
76126;BME280;65174;48.138;21.002;2023-02-27T19:15:53;100287.75;;;-0.42;56.46
76126;BME280;65174;48.138;21.002;2023-02-27T19:18:57;100287.00;;;-0.56;57.14
76126;BME280;65174;48.138;21.002;2023-02-27T19:21:59;100299.59;;;-0.42;56.76
76126;BME280;65174;48.138;21.002;2023-02-27T19:25:01;100306.34;;;-0.41;57.05
76126;BME280;65174;48.138;21.002;2023-02-27T19:28:04;100303.88;;;-0.53;57.21
76126;BME280;65174;48.138;21.002;2023-02-27T19:31:10;100296.22;;;-0.43;56.83
76126;BME280;65174;48.138;21.002;2023-02-27T19:34:13;100304.72;;;-0.53;57.29
76126;BME280;65174;48.138;21.002;2023-02-27T19:37:15;100308.09;;;-0.46;56.92
76126;BME280;65174;48.138;21.002;2023-02-27T19:40:18;100312.31;;;-0.47;57.03
76126;BME280;65174;48.138;21.002;2023-02-27T19:43:22;100300.53;;;-0.57;57.23
76126;BME280;65174;48.138;21.002;2023-02-27T19:46:27;100310.66;;;-0.55;57.29
76126;BME280;65174;48.138;21.002;2023-02-27T19:49:30;100307.25;;;-0.54;57.11
76126;BME280;65174;48.138;21.002;2023-02-27T19:52:36;100299.66;;;-0.51;57.44
76126;BME280;65174;48.138;21.002;2023-02-27T19:55:38;100300.53;;;-0.60;57.35
76126;BME280;65174;48.138;21.002;2023-02-27T19:58:40;100303.09;;;-0.61;57.58
76126;BME280;65174;48.138;21.002;2023-02-27T20:01:43;100305.56;;;-0.52;58.00
76126;BME280;65174;48.138;21.002;2023-02-27T20:04:45;100295.50;;;-0.66;57.99
76126;BME280;65174;48.138;21.002;2023-02-27T20:07:48;100297.22;;;-0.71;58.29
76126;BME280;65174;48.138;21.002;2023-02-27T20:10:57;100292.16;;;-0.71;58.04
76126;BME280;65174;48.138;21.002;2023-02-27T20:14:01;100301.44;;;-0.68;58.48